createdAt,value
2023-02-16T00:01:24.504Z,1.48
2023-02-16T00:03:53.534Z,1.44
2023-02-16T00:06:23.344Z,1.31
2023-02-16T00:08:53.361Z,1.44
2023-02-16T00:11:42.455Z,1.43
2023-02-16T00:14:12.368Z,1.46
2023-02-16T00:16:40.469Z,1.21
2023-02-16T00:19:23.079Z,1.46
2023-02-16T00:21:54.651Z,1.44
2023-02-16T00:24:23.186Z,1.39
2023-02-16T00:26:51.483Z,1.49
2023-02-16T00:29:22.387Z,1.52
2023-02-16T00:31:50.930Z,1.54
2023-02-16T00:34:28.460Z,1.48
2023-02-16T00:36:59.707Z,1.50
2023-02-16T00:39:28.787Z,1.38
2023-02-16T00:41:59.016Z,1.52
2023-02-16T00:44:34.342Z,1.53
2023-02-16T00:47:05.377Z,1.56
2023-02-16T00:49:33.336Z,1.56
2023-02-16T00:52:03.011Z,1.56
2023-02-16T00:54:32.162Z,1.56
2023-02-16T00:57:00.339Z,1.57
2023-02-16T00:59:28.358Z,1.54
2023-02-16T01:01:57.626Z,1.49
2023-02-16T01:04:25.839Z,1.57
2023-02-16T01:07:11.642Z,1.55
2023-02-16T01:09:58.374Z,1.47
2023-02-16T01:12:26.593Z,1.36
2023-02-16T01:14:56.536Z,1.41
2023-02-16T01:17:24.998Z,1.32
2023-02-16T01:19:53.102Z,1.51
2023-02-16T01:22:20.890Z,1.54
2023-02-16T01:24:50.059Z,1.49
2023-02-16T01:27:18.060Z,1.53
2023-02-16T01:29:45.902Z,1.54
2023-02-16T01:32:13.991Z,1.56
2023-02-16T01:34:42.637Z,1.55
2023-02-16T01:37:16.130Z,1.53
2023-02-16T01:39:44.093Z,1.53
2023-02-16T01:42:29.021Z,1.54
2023-02-16T01:45:00.516Z,1.52
2023-02-16T01:47:37.939Z,1.52
2023-02-16T01:50:17.285Z,1.34
2023-02-16T01:52:48.875Z,1.55
2023-02-16T01:55:21.285Z,1.57
2023-02-16T01:57:53.505Z,1.46
2023-02-16T02:00:28.723Z,1.50
2023-02-16T02:03:20.585Z,1.53
2023-02-16T02:05:49.057Z,1.57
2023-02-16T02:08:24.995Z,1.58
2023-02-16T02:11:04.309Z,1.60
2023-02-16T02:13:41.050Z,1.17
2023-02-16T02:16:09.875Z,1.66
2023-02-16T02:18:37.970Z,1.67
2023-02-16T02:21:55.035Z,1.69
2023-02-16T02:24:58.055Z,1.62
2023-02-16T02:27:29.793Z,1.42
2023-02-16T02:30:18.937Z,1.46
2023-02-16T02:33:13.401Z,1.62
2023-02-16T02:35:51.158Z,1.62
2023-02-16T02:38:26.064Z,1.62
2023-02-16T02:41:00.616Z,1.66
2023-02-16T02:43:37.300Z,1.58
2023-02-16T02:46:11.872Z,1.18
2023-02-16T02:48:40.099Z,1.66
2023-02-16T02:51:32.088Z,1.65
2023-02-16T02:54:24.116Z,1.65
2023-02-16T02:57:15.011Z,1.63
2023-02-16T03:00:05.808Z,1.65
2023-02-16T03:02:35.538Z,1.30
2023-02-16T03:05:06.778Z,1.51
2023-02-16T03:07:50.057Z,1.66
2023-02-16T03:10:38.691Z,1.66
2023-02-16T03:13:13.012Z,1.63
2023-02-16T03:15:45.043Z,1.62
2023-02-16T03:18:31.834Z,1.50
2023-02-16T03:21:18.699Z,1.57
2023-02-16T03:24:06.157Z,1.58
2023-02-16T03:26:52.142Z,1.58
2023-02-16T03:29:22.611Z,1.17
2023-02-16T03:31:54.135Z,1.50
2023-02-16T03:34:23.244Z,1.39
2023-02-16T03:36:55.000Z,1.40
2023-02-16T03:39:23.171Z,1.49
2023-02-16T03:41:53.936Z,1.45
2023-02-16T03:44:22.527Z,1.44
2023-02-16T03:46:52.864Z,1.50
2023-02-16T03:49:21.272Z,1.42
2023-02-16T03:51:49.397Z,1.48
2023-02-16T03:54:17.508Z,1.53
2023-02-16T03:56:45.348Z,1.47
2023-02-16T03:59:13.171Z,1.54
2023-02-16T04:01:41.321Z,1.57
2023-02-16T04:04:10.555Z,1.56
2023-02-16T04:06:38.508Z,1.54
2023-02-16T04:09:06.584Z,1.54
2023-02-16T04:11:51.854Z,1.52
2023-02-16T04:14:20.098Z,1.55
2023-02-16T04:16:47.933Z,1.55
2023-02-16T04:19:17.201Z,1.53
2023-02-16T04:21:45.173Z,1.46
2023-02-16T04:24:12.977Z,1.52
2023-02-16T04:26:40.878Z,1.43
2023-02-16T04:29:08.970Z,1.57
2023-02-16T04:31:36.906Z,1.59
2023-02-16T04:34:05.197Z,1.57
2023-02-16T04:36:35.491Z,1.48
2023-02-16T04:39:03.419Z,1.57
2023-02-16T04:41:31.413Z,1.50
2023-02-16T04:43:59.520Z,1.10
2023-02-16T04:46:27.617Z,1.47
2023-02-16T04:48:55.478Z,1.55
2023-02-16T04:51:23.468Z,1.55
2023-02-16T04:53:52.651Z,1.55
2023-02-16T04:56:20.540Z,1.55
2023-02-16T04:58:48.542Z,1.56
2023-02-16T05:01:20.491Z,1.59
2023-02-16T05:03:48.488Z,1.51
2023-02-16T05:06:16.942Z,1.39
2023-02-16T05:08:44.912Z,1.57
2023-02-16T05:11:31.777Z,1.54
2023-02-16T05:14:17.896Z,1.53
2023-02-16T05:16:46.805Z,1.34
2023-02-16T05:19:14.899Z,1.52
2023-02-16T05:21:42.866Z,1.28
2023-02-16T05:24:12.981Z,1.47
2023-02-16T05:26:42.322Z,1.46
2023-02-16T05:29:10.252Z,1.41
2023-02-16T05:31:38.980Z,1.37
2023-02-16T05:34:06.937Z,1.35
2023-02-16T05:36:34.806Z,1.28
2023-02-16T05:39:03.092Z,1.19
2023-02-16T05:41:31.034Z,1.24
2023-02-16T05:44:02.264Z,1.13
2023-02-16T05:46:32.880Z,1.27
2023-02-16T05:49:01.538Z,1.25
2023-02-16T05:51:29.713Z,1.24
2023-02-16T05:53:57.949Z,1.23
2023-02-16T05:56:25.905Z,1.21
2023-02-16T05:58:54.291Z,1.25
2023-02-16T06:01:23.808Z,1.27
2023-02-16T06:03:52.613Z,0.86
2023-02-16T06:06:20.988Z,1.26
2023-02-16T06:08:49.053Z,1.15
2023-02-16T06:11:34.667Z,1.26
2023-02-16T06:14:03.283Z,1.27
2023-02-16T06:16:34.999Z,1.28
2023-02-16T06:19:03.674Z,1.29
2023-02-16T06:21:32.310Z,0.72
2023-02-16T06:24:00.227Z,1.27
2023-02-16T06:26:28.508Z,1.24
2023-02-16T06:28:56.643Z,1.08
2023-02-16T06:31:25.329Z,1.14
2023-02-16T06:33:56.835Z,1.20
2023-02-16T06:36:25.786Z,1.21
2023-02-16T06:38:53.613Z,1.23
2023-02-16T06:41:32.395Z,1.23
2023-02-16T06:44:01.471Z,1.22
2023-02-16T06:46:29.685Z,1.22
2023-02-16T06:48:59.278Z,1.22
2023-02-16T06:51:27.726Z,1.20
2023-02-16T06:53:55.673Z,1.10
2023-02-16T06:56:23.864Z,1.18
2023-02-16T06:58:52.319Z,1.20
2023-02-16T07:01:23.422Z,1.24
2023-02-16T07:03:51.832Z,0.97
2023-02-16T07:06:21.498Z,1.26
2023-02-16T07:08:49.491Z,1.28
2023-02-16T07:11:19.340Z,1.14
2023-02-16T07:13:47.355Z,1.35
2023-02-16T07:16:15.934Z,1.28
2023-02-16T07:18:43.984Z,1.39
2023-02-16T07:21:11.942Z,1.42
2023-02-16T07:23:41.386Z,1.45
2023-02-16T07:26:09.362Z,1.47
2023-02-16T07:28:37.308Z,1.49
2023-02-16T07:31:09.654Z,1.52
2023-02-16T07:33:38.304Z,1.18
2023-02-16T07:36:07.113Z,1.53
2023-02-16T07:38:35.298Z,1.56
2023-02-16T07:41:08.607Z,1.57
2023-02-16T07:43:37.941Z,1.58
2023-02-16T07:46:06.685Z,1.62
2023-02-16T07:48:34.746Z,1.63
2023-02-16T07:51:03.409Z,1.64
2023-02-16T07:53:31.635Z,1.53
2023-02-16T07:55:59.514Z,0.64
2023-02-16T07:58:28.934Z,1.60
2023-02-16T08:00:57.968Z,1.72
2023-02-16T08:03:25.879Z,1.78
2023-02-16T08:05:53.949Z,1.81
2023-02-16T08:08:21.889Z,1.82
2023-02-16T08:10:49.732Z,1.88
2023-02-16T08:13:17.763Z,1.86
2023-02-16T08:15:47.015Z,1.86
2023-02-16T08:18:15.268Z,1.83
2023-02-16T08:21:01.550Z,1.82
2023-02-16T08:23:31.650Z,1.86
2023-02-16T08:26:00.112Z,1.91
2023-02-16T08:28:29.437Z,1.92
2023-02-16T08:31:03.661Z,1.95
2023-02-16T08:33:31.606Z,1.94
2023-02-16T08:35:59.678Z,1.63
2023-02-16T08:38:27.508Z,1.95
2023-02-16T08:40:56.052Z,1.92
2023-02-16T08:43:23.859Z,1.98
2023-02-16T08:45:52.038Z,2.01
2023-02-16T08:48:21.497Z,2.03
2023-02-16T08:50:53.962Z,2.07
2023-02-16T08:53:23.281Z,2.08
2023-02-16T08:55:55.813Z,2.12
2023-02-16T08:58:24.509Z,2.19
2023-02-16T09:00:52.609Z,2.23
2023-02-16T09:03:21.978Z,2.31
2023-02-16T09:05:51.372Z,2.39
2023-02-16T09:08:19.664Z,2.40
2023-02-16T09:10:47.734Z,2.14
2023-02-16T09:13:16.263Z,2.51
2023-02-16T09:15:44.933Z,2.56
2023-02-16T09:18:14.188Z,2.67
2023-02-16T09:20:46.890Z,2.74
2023-02-16T09:23:15.020Z,2.77
2023-02-16T09:25:43.041Z,2.70
2023-02-16T09:28:12.005Z,2.80
2023-02-16T09:30:40.481Z,2.76
2023-02-16T09:33:08.667Z,2.71
2023-02-16T09:35:39.109Z,2.70
2023-02-16T09:38:08.918Z,2.73
2023-02-16T09:40:37.824Z,2.76
2023-02-16T09:43:09.840Z,2.72
2023-02-16T09:45:44.937Z,2.53
2023-02-16T09:48:23.966Z,2.77
2023-02-16T09:50:55.653Z,2.77
2023-02-16T09:53:36.141Z,1.74
2023-02-16T09:56:17.039Z,2.82
2023-02-16T09:58:50.547Z,2.83
2023-02-16T10:01:29.108Z,2.93
2023-02-16T10:04:06.743Z,2.99
2023-02-16T10:06:58.580Z,3.02
2023-02-16T10:09:30.207Z,2.67
2023-02-16T10:12:05.568Z,2.92
2023-02-16T10:14:41.296Z,3.14
2023-02-16T10:17:18.386Z,3.24
2023-02-16T10:19:51.105Z,3.31
2023-02-16T10:22:32.562Z,3.31
2023-02-16T10:25:04.706Z,3.38
2023-02-16T10:27:39.178Z,3.43
2023-02-16T10:30:15.688Z,3.42
2023-02-16T10:32:56.209Z,3.47
2023-02-16T10:35:33.220Z,3.59
2023-02-16T10:38:08.434Z,3.44
2023-02-16T10:40:48.326Z,3.62
2023-02-16T10:43:21.634Z,3.61
2023-02-16T10:45:52.759Z,3.50
2023-02-16T10:48:21.951Z,3.68
2023-02-16T10:50:58.885Z,3.43
2023-02-16T10:53:38.216Z,3.68
2023-02-16T10:56:39.796Z,3.67
2023-02-16T10:59:13.863Z,3.64
2023-02-16T11:01:46.895Z,3.66
2023-02-16T11:04:36.710Z,3.62
2023-02-16T11:07:08.531Z,3.70
2023-02-16T11:09:37.706Z,3.56
2023-02-16T11:12:18.003Z,3.73
2023-02-16T11:14:51.599Z,3.73
2023-02-16T11:17:22.526Z,3.81
2023-02-16T11:19:53.987Z,3.83
2023-02-16T11:22:32.537Z,3.81
2023-02-16T11:25:21.455Z,3.48
2023-02-16T11:27:57.234Z,3.83
2023-02-16T11:30:32.518Z,3.37
2023-02-16T11:33:03.337Z,3.86
2023-02-16T11:35:32.927Z,3.84
2023-02-16T11:38:01.306Z,3.84
2023-02-16T11:40:33.144Z,3.88
2023-02-16T11:43:03.611Z,3.93
2023-02-16T11:45:34.681Z,3.97
2023-02-16T11:48:07.287Z,4.00
2023-02-16T11:50:38.776Z,4.04
2023-02-16T11:53:16.439Z,4.08
2023-02-16T11:55:46.338Z,3.87
2023-02-16T11:58:17.986Z,4.15
2023-02-16T12:00:57.880Z,4.10
2023-02-16T12:04:01.448Z,4.13
2023-02-16T12:06:40.825Z,3.84
2023-02-16T12:09:21.204Z,4.02
2023-02-16T12:12:02.611Z,4.13
2023-02-16T12:14:50.156Z,4.07
2023-02-16T12:17:28.012Z,4.17
2023-02-16T12:20:04.181Z,4.01
2023-02-16T12:22:41.177Z,4.20
2023-02-16T12:25:26.665Z,4.18
2023-02-16T12:28:02.735Z,2.93
2023-02-16T12:30:46.673Z,4.25
2023-02-16T12:33:33.429Z,3.33
2023-02-16T12:36:23.065Z,4.32
2023-02-16T12:39:03.265Z,4.30
2023-02-16T12:41:45.706Z,4.37
2023-02-16T12:44:19.335Z,4.37
2023-02-16T12:46:52.041Z,4.07
2023-02-16T12:49:25.715Z,4.37
2023-02-16T12:51:59.309Z,4.21
2023-02-16T12:54:31.428Z,4.25
2023-02-16T12:57:04.684Z,4.39
2023-02-16T12:59:40.038Z,4.23
2023-02-16T13:02:19.224Z,4.45
2023-02-16T13:04:51.087Z,4.47
2023-02-16T13:07:26.529Z,4.48
2023-02-16T13:10:01.358Z,4.51
2023-02-16T13:12:35.829Z,4.53
2023-02-16T13:15:12.771Z,4.51
2023-02-16T13:17:48.369Z,4.60
2023-02-16T13:20:18.300Z,4.45
2023-02-16T13:23:11.554Z,4.30
2023-02-16T13:26:11.624Z,4.64
2023-02-16T13:29:03.238Z,4.53
2023-02-16T13:31:43.868Z,4.57
2023-02-16T13:34:46.672Z,4.58
2023-02-16T13:37:25.266Z,4.49
2023-02-16T13:40:14.897Z,4.60
2023-02-16T13:43:04.441Z,4.52
2023-02-16T13:45:35.606Z,4.60
2023-02-16T13:48:03.526Z,4.63
2023-02-16T13:50:35.763Z,4.47
2023-02-16T13:53:19.745Z,4.68
2023-02-16T13:55:52.874Z,4.57
2023-02-16T13:58:33.558Z,4.69
2023-02-16T14:01:38.900Z,4.69
2023-02-16T14:04:11.980Z,4.63
2023-02-16T14:06:43.952Z,4.68
2023-02-16T14:09:34.965Z,4.67
2023-02-16T14:12:05.675Z,4.66
2023-02-16T14:14:36.457Z,4.64
2023-02-16T14:17:17.882Z,4.65
2023-02-16T14:19:55.918Z,4.42
2023-02-16T14:22:34.116Z,4.66
2023-02-16T14:25:05.446Z,4.66
2023-02-16T14:27:48.883Z,4.68
2023-02-16T14:30:23.261Z,4.50
2023-02-16T14:32:57.806Z,4.66
2023-02-16T14:35:30.195Z,4.60
2023-02-16T14:38:01.765Z,4.65
2023-02-16T14:40:48.838Z,4.68
2023-02-16T14:43:29.415Z,4.68
2023-02-16T14:46:13.775Z,4.31
2023-02-16T14:49:13.173Z,4.69
2023-02-16T14:52:17.138Z,4.68
2023-02-16T14:55:17.492Z,4.68
2023-02-16T14:57:51.965Z,4.56
2023-02-16T15:00:25.038Z,4.28
2023-02-16T15:02:58.300Z,4.67
2023-02-16T15:05:33.039Z,4.68
2023-02-16T15:08:09.526Z,4.69
2023-02-16T15:10:40.736Z,4.70
2023-02-16T15:13:09.822Z,4.56
2023-02-16T15:15:47.189Z,4.71
2023-02-16T15:18:18.306Z,4.71
2023-02-16T15:20:49.472Z,4.71
2023-02-16T15:23:20.793Z,4.71
2023-02-16T15:26:00.204Z,4.72
2023-02-16T15:28:29.495Z,4.72
2023-02-16T15:30:59.398Z,4.73
2023-02-16T15:33:33.824Z,4.72
2023-02-16T15:36:04.080Z,4.60
2023-02-16T15:38:34.601Z,4.63
2023-02-16T15:41:06.721Z,4.71
2023-02-16T15:43:38.691Z,4.72
2023-02-16T15:46:08.964Z,4.72
2023-02-16T15:48:38.362Z,4.64
2023-02-16T15:51:15.377Z,4.68
2023-02-16T15:53:48.936Z,4.64
2023-02-16T15:56:32.915Z,4.47
2023-02-16T15:59:02.732Z,4.66
2023-02-16T16:01:37.571Z,4.67
2023-02-16T16:04:09.435Z,4.65
2023-02-16T16:06:41.142Z,4.63
2023-02-16T16:09:20.988Z,3.66
2023-02-16T16:11:51.950Z,4.60
2023-02-16T16:14:20.650Z,4.54
2023-02-16T16:16:48.762Z,4.54
2023-02-16T16:19:20.281Z,4.52
2023-02-16T16:21:54.489Z,4.58
2023-02-16T16:24:34.136Z,4.47
2023-02-16T16:27:06.544Z,4.57
2023-02-16T16:29:37.607Z,4.39
2023-02-16T16:32:06.880Z,4.57
2023-02-16T16:34:38.625Z,4.34
2023-02-16T16:37:08.393Z,4.54
2023-02-16T16:39:41.115Z,4.49
2023-02-16T16:42:20.752Z,4.32
2023-02-16T16:45:00.958Z,4.57
2023-02-16T16:47:33.055Z,4.61
2023-02-16T16:50:04.054Z,4.62
2023-02-16T16:52:43.751Z,4.63
2023-02-16T16:55:38.889Z,4.65
2023-02-16T16:58:09.026Z,4.55
2023-02-16T17:00:38.729Z,4.65
2023-02-16T17:03:08.506Z,4.64
2023-02-16T17:05:38.444Z,4.64
2023-02-16T17:08:06.362Z,4.54
2023-02-16T17:10:36.200Z,4.62
2023-02-16T17:13:04.492Z,4.61
2023-02-16T17:15:41.336Z,4.27
2023-02-16T17:18:15.917Z,4.61
2023-02-16T17:20:44.132Z,4.47
2023-02-16T17:23:12.761Z,4.60
2023-02-16T17:25:41.346Z,4.31
2023-02-16T17:28:10.438Z,4.47
2023-02-16T17:30:40.111Z,4.40
2023-02-16T17:33:09.594Z,4.22
2023-02-16T17:35:39.402Z,4.39
2023-02-16T17:38:11.759Z,4.52
2023-02-16T17:40:41.441Z,4.52
2023-02-16T17:43:14.330Z,4.61
2023-02-16T17:45:45.150Z,4.44
2023-02-16T17:48:17.473Z,4.62
2023-02-16T17:50:45.832Z,4.61
2023-02-16T17:53:15.115Z,4.47
2023-02-16T17:55:43.071Z,4.61
2023-02-16T17:58:11.428Z,4.49
2023-02-16T18:00:39.755Z,4.34
2023-02-16T18:03:09.808Z,4.62
2023-02-16T18:05:38.056Z,4.63
2023-02-16T18:08:06.633Z,4.64
2023-02-16T18:10:37.395Z,4.65
2023-02-16T18:13:05.895Z,4.67
2023-02-16T18:15:34.805Z,4.69
2023-02-16T18:18:02.716Z,4.69
2023-02-16T18:20:32.084Z,4.70
2023-02-16T18:23:00.236Z,4.72
2023-02-16T18:25:28.200Z,4.60
2023-02-16T18:27:56.139Z,4.64
2023-02-16T18:30:24.955Z,4.71
2023-02-16T18:32:52.796Z,4.71
2023-02-16T18:35:21.357Z,4.59
2023-02-16T18:37:50.964Z,4.33
2023-02-16T18:40:21.324Z,4.65
2023-02-16T18:42:49.384Z,4.69
2023-02-16T18:45:17.767Z,4.67
2023-02-16T18:47:45.805Z,4.64
2023-02-16T18:50:13.992Z,4.64
2023-02-16T18:52:43.458Z,4.36
2023-02-16T18:55:13.672Z,4.60
2023-02-16T18:57:41.669Z,4.60
2023-02-16T19:00:12.150Z,4.55
2023-02-16T19:02:41.012Z,4.59
2023-02-16T19:05:09.485Z,4.57
2023-02-16T19:07:37.571Z,4.48
2023-02-16T19:10:08.437Z,4.55
2023-02-16T19:12:39.133Z,4.55
2023-02-16T19:15:07.690Z,4.34
2023-02-16T19:17:36.316Z,4.35
2023-02-16T19:20:04.890Z,4.50
2023-02-16T19:22:33.725Z,4.57
2023-02-16T19:25:01.665Z,4.48
2023-02-16T19:27:29.773Z,4.49
2023-02-16T19:29:59.028Z,4.55
2023-02-16T19:32:26.987Z,4.52
2023-02-16T19:34:55.212Z,4.51
2023-02-16T19:37:23.043Z,4.46
2023-02-16T19:39:51.027Z,4.41
2023-02-16T19:42:19.158Z,4.50
2023-02-16T19:44:46.959Z,4.30
2023-02-16T19:47:16.219Z,4.36
2023-02-16T19:49:44.234Z,4.44
2023-02-16T19:52:12.107Z,4.38
2023-02-16T19:54:40.043Z,4.16
2023-02-16T19:57:08.140Z,4.44
2023-02-16T19:59:36.242Z,4.47
2023-02-16T20:02:04.124Z,4.44
2023-02-16T20:04:33.891Z,4.48
2023-02-16T20:07:01.978Z,4.49
2023-02-16T20:09:30.720Z,4.48
2023-02-16T20:11:58.750Z,4.39
2023-02-16T20:14:27.850Z,4.49
2023-02-16T20:16:55.761Z,4.49
2023-02-16T20:19:23.798Z,4.44
2023-02-16T20:21:53.008Z,4.50
2023-02-16T20:24:20.880Z,4.34
2023-02-16T20:26:52.115Z,4.47
2023-02-16T20:29:21.013Z,3.65
2023-02-16T20:31:51.761Z,4.43
2023-02-16T20:34:20.347Z,4.39
2023-02-16T20:36:48.282Z,4.09
2023-02-16T20:39:17.583Z,4.36
2023-02-16T20:41:45.638Z,4.33
2023-02-16T20:44:13.988Z,4.31
2023-02-16T20:46:42.243Z,4.28
2023-02-16T20:49:10.635Z,4.09
2023-02-16T20:51:38.798Z,3.83
2023-02-16T20:54:07.030Z,4.20
2023-02-16T20:56:36.407Z,4.16
2023-02-16T20:59:05.642Z,4.14
2023-02-16T21:01:37.221Z,4.09
2023-02-16T21:04:07.481Z,4.01
2023-02-16T21:06:36.721Z,4.04
2023-02-16T21:09:05.672Z,4.01
2023-02-16T21:11:33.989Z,3.97
2023-02-16T21:14:03.307Z,3.96
2023-02-16T21:16:31.918Z,3.95
2023-02-16T21:19:00.008Z,3.67
2023-02-16T21:21:28.075Z,3.91
2023-02-16T21:23:56.862Z,3.89
2023-02-16T21:26:26.720Z,3.87
2023-02-16T21:28:54.686Z,3.74
2023-02-16T21:31:26.840Z,3.43
2023-02-16T21:33:55.506Z,3.89
2023-02-16T21:36:25.925Z,3.62
2023-02-16T21:38:54.163Z,3.72
2023-02-16T21:41:25.314Z,3.88
2023-02-16T21:44:00.770Z,3.85
2023-02-16T21:46:32.535Z,3.60
2023-02-16T21:48:59.770Z,3.92
2023-02-16T21:51:29.630Z,3.81
2023-02-16T21:53:58.900Z,3.94
2023-02-16T21:56:33.243Z,3.98
2023-02-16T21:59:02.211Z,4.07
2023-02-16T22:01:34.698Z,4.09
2023-02-16T22:04:03.439Z,4.13
2023-02-16T22:06:42.897Z,3.52
2023-02-16T22:09:14.371Z,4.19
2023-02-16T22:11:42.880Z,4.20
2023-02-16T22:14:11.226Z,4.18
2023-02-16T22:16:41.547Z,3.92
2023-02-16T22:19:13.172Z,4.23
2023-02-16T22:21:44.046Z,4.19
2023-02-16T22:24:14.564Z,4.21
2023-02-16T22:26:42.903Z,4.18
2023-02-16T22:29:11.851Z,4.08
2023-02-16T22:31:45.601Z,4.15
2023-02-16T22:34:15.992Z,4.14
2023-02-16T22:36:44.576Z,4.11
2023-02-16T22:39:14.196Z,4.09
2023-02-16T22:41:42.508Z,4.07
2023-02-16T22:44:11.852Z,3.91
2023-02-16T22:46:41.481Z,3.97
2023-02-16T22:49:11.188Z,3.90
2023-02-16T22:51:39.804Z,3.85
2023-02-16T22:54:08.193Z,3.79
2023-02-16T22:56:36.800Z,3.76
2023-02-16T22:59:04.905Z,3.64
2023-02-16T23:01:33.904Z,3.65
2023-02-16T23:04:04.059Z,3.58
2023-02-16T23:06:33.920Z,3.45
2023-02-16T23:09:05.055Z,3.48
2023-02-16T23:11:33.939Z,3.26
2023-02-16T23:14:02.295Z,3.43
2023-02-16T23:16:30.653Z,3.40
2023-02-16T23:19:00.687Z,3.37
2023-02-16T23:21:32.427Z,3.17
2023-02-16T23:24:01.515Z,3.32
2023-02-16T23:26:32.015Z,3.30
2023-02-16T23:29:02.783Z,3.29
2023-02-16T23:31:33.798Z,3.28
2023-02-16T23:34:02.895Z,3.07
2023-02-16T23:36:33.054Z,3.19
2023-02-16T23:39:01.729Z,3.23
2023-02-16T23:41:30.094Z,3.22
2023-02-16T23:44:00.661Z,3.21
2023-02-16T23:46:29.658Z,3.18
2023-02-16T23:48:58.389Z,3.21
2023-02-16T23:51:27.352Z,2.99
2023-02-16T23:53:57.234Z,3.18
2023-02-16T23:56:28.393Z,3.17
2023-02-16T23:58:58.723Z,3.15
